Time;durP1;ratioP1;P1;durP2;ratioP2;P2;SDS_P1;SDS_P2;PMS_P1;PMS_P2;Temp;Humidity;BMP_temperature;BMP_pressure;BME280_temperature;BME280_humidity;BME280_pressure;Samples;Min_cycle;Max_cycle;Signal;HPM_P1;HPM_P2
2022/07/25 00:00:29;;;;;;;66.65;11.00;;;;;;;30.67;42.91;99469.09;5064175;28;20013;-45
2022/07/25 00:02:54;;;;;;;43.38;12.30;;;;;;;29.39;50.36;99480.81;5065992;28;20322;-45
2022/07/25 00:05:20;;;;;;;29.42;10.60;;;;;;;29.53;47.97;99469.56;5065683;28;20021;-43
2022/07/25 00:07:46;;;;;;;24.30;10.20;;;;;;;29.28;48.92;99465.94;5065525;28;20031;-43
2022/07/25 00:10:11;;;;;;;25.60;9.57;;;;;;;28.72;50.33;99464.22;5065694;28;20033;-43
2022/07/25 00:12:37;;;;;;;17.35;9.55;;;;;;;28.43;49.61;99465.78;5054404;28;20100;-44
2022/07/25 00:15:03;;;;;;;14.25;8.95;;;;;;;28.43;49.53;99471.28;5052964;28;20028;-42
2022/07/25 00:17:29;;;;;;;16.30;8.90;;;;;;;27.73;51.68;99470.66;5051178;28;20028;-43
2022/07/25 00:19:54;;;;;;;18.08;8.77;;;;;;;27.38;52.75;99476.19;5052127;28;20435;-44
2022/07/25 00:22:20;;;;;;;15.48;9.05;;;;;;;27.27;54.36;99494.81;5052280;28;20086;-44
2022/07/25 00:24:45;;;;;;;12.85;8.48;;;;;;;27.45;52.44;99508.47;5052347;28;20471;-46
2022/07/25 00:27:10;;;;;;;13.75;8.90;;;;;;;27.81;51.67;99505.38;5052058;28;20565;-44
2022/07/25 00:29:36;;;;;;;13.88;8.68;;;;;;;27.60;52.29;99507.97;5051989;28;20020;-43
2022/07/25 00:32:01;;;;;;;12.30;8.45;;;;;;;27.38;53.08;99505.41;5052361;28;20032;-46
2022/07/25 00:34:27;;;;;;;12.90;8.43;;;;;;;27.27;53.32;99513.16;5051916;28;20035;-42
2022/07/25 00:36:52;;;;;;;14.18;8.65;;;;;;;27.13;51.34;99512.44;5052064;28;20023;-42
2022/07/25 00:39:18;;;;;;;9.57;8.65;;;;;;;26.61;51.33;99500.28;5051889;28;20047;-43
2022/07/25 00:41:43;;;;;;;9.82;8.30;;;;;;;26.84;51.19;99503.72;5051628;28;20530;-42
2022/07/25 00:44:20;;;;;;;13.02;8.73;;;;;;;26.89;49.77;99495.38;5052027;28;20049;-44
2022/07/25 00:46:45;;;;;;;10.88;8.27;;;;;;;27.02;49.69;99498.31;5051983;28;20040;-42
2022/07/25 00:49:10;;;;;;;11.85;9.02;;;;;;;26.84;50.79;99492.00;5051599;28;20141;-43
2022/07/25 00:51:36;;;;;;;9.93;8.93;;;;;;;26.87;50.60;99489.44;5051440;28;20545;-44
2022/07/25 00:54:01;;;;;;;9.35;8.45;;;;;;;27.11;49.62;99482.72;5051414;28;20056;-43
2022/07/25 00:56:27;;;;;;;9.63;8.52;;;;;;;27.50;48.53;99481.78;5050320;28;20029;-43
2022/07/25 00:58:53;;;;;;;9.50;8.50;;;;;;;27.71;47.33;99488.53;5051548;28;20047;-43
2022/07/25 01:01:18;;;;;;;9.73;8.18;;;;;;;27.40;49.07;99481.34;5050924;28;20053;-43
2022/07/25 01:03:44;;;;;;;9.25;8.35;;;;;;;27.26;49.39;99486.94;5051178;28;20049;-43
2022/07/25 01:06:09;;;;;;;9.23;8.23;;;;;;;27.47;49.18;99487.91;5051267;28;20047;-41
2022/07/25 01:08:35;;;;;;;8.77;7.97;;;;;;;27.69;47.80;99489.66;5051469;28;20017;-42
2022/07/25 01:11:01;;;;;;;9.00;7.95;;;;;;;28.05;46.69;99491.22;5051320;28;20060;-42
2022/07/25 01:13:26;;;;;;;8.60;7.78;;;;;;;28.01;46.23;99493.00;5051410;28;20087;-43
2022/07/25 01:15:52;;;;;;;8.30;7.50;;;;;;;27.83;46.00;99485.91;5051397;28;20107;-42
2022/07/25 01:18:17;;;;;;;9.23;7.53;;;;;;;27.85;46.19;99484.50;5051322;28;20029;-42
2022/07/25 01:20:43;;;;;;;8.60;7.80;;;;;;;28.08;45.13;99478.81;5051048;28;20373;-42
2022/07/25 01:23:08;;;;;;;10.77;7.18;;;;;;;28.10;44.07;99470.28;5049978;28;20044;-43
2022/07/25 01:25:34;;;;;;;8.77;7.80;;;;;;;28.11;43.34;99478.16;5050899;28;20025;-42
2022/07/25 01:27:59;;;;;;;8.63;7.70;;;;;;;28.14;43.80;99484.91;5050845;28;20017;-42
2022/07/25 01:30:25;;;;;;;8.00;7.22;;;;;;;28.24;42.98;99471.69;5050912;28;20469;-42
2022/07/25 01:32:51;;;;;;;9.25;7.07;;;;;;;28.28;41.92;99477.28;5050612;28;20017;-41
2022/07/25 01:35:17;;;;;;;9.10;6.88;;;;;;;28.30;41.50;99469.56;5050871;28;20387;-41
2022/07/25 01:37:42;;;;;;;8.02;7.22;;;;;;;28.21;42.02;99460.59;5050885;28;20377;-42
2022/07/25 01:40:08;;;;;;;11.50;7.28;;;;;;;28.18;42.65;99455.75;5050375;28;20385;-41
2022/07/25 01:42:34;;;;;;;7.32;6.63;;;;;;;28.51;41.36;99453.19;5050715;28;20033;-42
2022/07/25 01:45:00;;;;;;;8.77;7.40;;;;;;;28.73;41.92;99445.84;5050244;28;20028;-44
2022/07/25 01:47:25;;;;;;;8.43;7.57;;;;;;;28.94;41.11;99443.94;5050508;28;20481;-42
2022/07/25 01:49:51;;;;;;;8.35;7.45;;;;;;;29.12;40.81;99450.06;5050692;28;20107;-43
2022/07/25 01:52:17;;;;;;;7.85;7.05;;;;;;;28.62;42.26;99437.25;5050873;28;20032;-42
2022/07/25 01:54:43;;;;;;;9.20;7.85;;;;;;;28.66;42.43;99444.44;5050011;28;20044;-43
2022/07/25 01:57:09;;;;;;;8.75;7.80;;;;;;;28.77;41.75;99427.63;5050192;28;20044;-41
2022/07/25 01:59:39;;;;;;;9.43;8.27;;;;;;;28.92;41.86;99426.22;5050292;28;20208;-41
2022/07/25 02:02:08;;;;;;;9.00;7.78;;;;;;;28.95;41.97;99420.88;5034783;28;20238;-42
2022/07/25 02:04:34;;;;;;;;;;;;;;;28.40;42.57;99406.25;5030688;28;20112;-42
2022/07/25 02:07:00;;;;;;;9.13;8.20;;;;;;;28.37;42.81;99398.72;5029811;28;20391;-44
2022/07/25 02:09:26;;;;;;;9.18;8.27;;;;;;;28.44;42.99;99390.78;5030494;28;20040;-42
2022/07/25 02:11:51;;;;;;;10.63;7.97;;;;;;;28.77;42.42;99395.59;5030465;28;20037;-43
2022/07/25 02:14:17;;;;;;;10.27;8.30;;;;;;;29.19;41.58;99392.84;5030571;28;20026;-42
2022/07/25 02:16:42;;;;;;;10.30;8.02;;;;;;;28.81;43.07;99384.78;5030205;28;20425;-41
2022/07/25 02:19:08;;;;;;;12.70;8.20;;;;;;;28.49;43.83;99386.25;5030412;28;20037;-42
2022/07/25 02:21:33;;;;;;;11.07;8.15;;;;;;;28.51;43.80;99373.03;5030384;28;20094;-42
2022/07/25 02:23:59;;;;;;;9.15;8.35;;;;;;;28.73;43.61;99383.72;5030508;28;20076;-41
2022/07/25 02:26:24;;;;;;;13.45;8.63;;;;;;;28.94;43.38;99378.22;5030281;28;20024;-42
2022/07/25 02:28:50;;;;;;;9.43;8.52;;;;;;;28.52;44.38;99375.47;5030403;28;20025;-43
2022/07/25 02:31:16;;;;;;;9.88;8.25;;;;;;;28.33;44.83;99367.69;5030339;28;20079;-42
2022/07/25 02:33:42;;;;;;;9.85;8.23;;;;;;;28.21;45.15;99362.13;5030040;28;20025;-42
2022/07/25 02:36:08;;;;;;;9.30;8.30;;;;;;;28.46;43.99;99363.06;5029742;28;20374;-41
2022/07/25 02:38:34;;;;;;;10.27;8.50;;;;;;;28.41;43.80;99353.16;5029832;28;20056;-41
2022/07/25 02:40:59;;;;;;;9.30;8.50;;;;;;;28.43;43.65;99361.03;5030112;28;20018;-41
2022/07/25 02:43:25;;;;;;;8.77;7.93;;;;;;;28.28;44.04;99360.47;5030042;28;20434;-42
2022/07/25 02:45:50;;;;;;;9.30;8.20;;;;;;;28.24;44.28;99369.66;5029934;28;20018;-41
2022/07/25 02:48:16;;;;;;;9.05;8.13;;;;;;;28.45;43.70;99367.75;5029636;28;20388;-43
2022/07/25 02:50:41;;;;;;;8.48;7.68;;;;;;;28.52;43.43;99377.41;5029539;28;20124;-41
2022/07/25 02:53:06;;;;;;;9.95;8.07;;;;;;;28.90;42.33;99368.25;5029058;28;20413;-42
2022/07/25 02:55:32;;;;;;;8.27;7.53;;;;;;;28.55;43.36;99376.75;5029720;28;20049;-43
2022/07/25 02:57:57;;;;;;;8.52;7.50;;;;;;;28.29;44.02;99374.94;5029468;28;20025;-41
2022/07/25 03:00:23;;;;;;;8.60;7.68;;;;;;;28.56;43.91;99383.81;5029686;28;20022;-42
2022/07/25 03:02:49;;;;;;;12.77;8.10;;;;;;;28.51;44.58;99381.25;5029197;28;20037;-41
2022/07/25 03:05:15;;;;;;;9.80;8.80;;;;;;;29.03;43.43;99386.34;5028462;28;20663;-40
2022/07/25 03:07:42;;;;;;;12.68;10.35;;;;;;;28.33;44.61;99384.09;5038274;28;20029;-41
2022/07/25 03:10:09;;;;;;;9.55;8.55;;;;;;;28.29;44.23;99388.59;5050063;28;20381;-41
2022/07/25 03:12:35;;;;;;;9.18;7.90;;;;;;;28.50;43.84;99396.06;5045435;28;20576;-41
2022/07/25 03:15:02;;;;;;;10.55;7.85;;;;;;;28.71;43.01;99399.66;5048215;28;20104;-41
2022/07/25 03:17:27;;;;;;;20.60;15.43;;;;;;;29.24;41.64;99408.25;5048215;28;20104;-42
2022/07/25 03:19:54;;;;;;;19.35;15.55;;;;;;;28.53;44.15;99403.66;5037793;28;20167;-43
2022/07/25 03:22:19;;;;;;;11.77;9.70;;;;;;;28.59;43.84;99408.56;5047105;28;20055;-43
2022/07/25 03:24:45;;;;;;;9.85;7.93;;;;;;;28.56;44.20;99400.22;5041855;28;20029;-42
2022/07/25 03:27:10;;;;;;;8.75;7.25;;;;;;;28.74;42.63;99401.72;5040505;28;20024;-44
2022/07/25 03:29:36;;;;;;;9.50;7.72;;;;;;;29.18;42.31;99409.63;5042974;28;20047;-43
2022/07/25 03:32:02;;;;;;;8.30;7.47;;;;;;;28.85;43.04;99413.09;5040941;28;20059;-43
2022/07/25 03:34:27;;;;;;;8.75;7.85;;;;;;;28.54;43.80;99414.25;5039979;28;20078;-42
2022/07/25 03:36:53;;;;;;;10.20;7.68;;;;;;;28.60;42.78;99410.19;5039710;28;20025;-42
2022/07/25 03:39:19;;;;;;;7.93;7.13;;;;;;;28.63;43.13;99419.66;5039662;28;20158;-43
2022/07/25 03:41:45;;;;;;;8.07;7.28;;;;;;;28.83;42.13;99420.81;5041461;28;20030;-42
2022/07/25 03:44:11;;;;;;;12.40;7.43;;;;;;;28.64;42.38;99424.81;5036894;28;20018;-44
2022/07/25 03:46:36;;;;;;;9.55;7.85;;;;;;;28.37;43.35;99425.25;5033018;28;20027;-41
2022/07/25 03:49:02;;;;;;;9.20;8.25;;;;;;;28.19;43.46;99430.03;5042216;28;20100;-41
2022/07/25 03:51:27;;;;;;;14.48;9.63;;;;;;;28.51;42.34;99425.03;5044368;28;20025;-42
2022/07/25 03:54:02;;;;;;;7.50;6.70;;;;;;;28.36;42.95;99419.00;5042466;28;20025;-43
2022/07/25 03:56:36;;;;;;;8.80;7.10;;;;;;;28.24;43.52;99438.06;5042013;28;20075;-42
2022/07/25 03:59:03;;;;;;;9.38;7.35;;;;;;;28.08;43.76;99429.56;5044909;28;20020;-42
2022/07/25 04:01:28;;;;;;;7.55;6.85;;;;;;;27.85;44.13;99431.72;5041608;28;20136;-45
2022/07/25 04:03:54;;;;;;;8.15;7.07;;;;;;;28.04;43.61;99437.63;5043423;28;20112;-43
2022/07/25 04:06:19;;;;;;;10.88;7.65;;;;;;;28.52;42.86;99435.69;5053306;28;20452;-43
2022/07/25 04:08:45;;;;;;;9.45;8.50;;;;;;;28.65;43.08;99434.63;5052903;28;20044;-44
2022/07/25 04:11:11;;;;;;;11.93;9.32;;;;;;;28.64;42.59;99435.75;5052653;28;20167;-46
2022/07/25 04:13:36;;;;;;;9.15;7.40;;;;;;;28.41;43.20;99437.16;5035456;28;20052;-45
2022/07/25 04:16:02;;;;;;;7.75;7.00;;;;;;;28.12;43.34;99441.50;5042175;28;20025;-43
2022/07/25 04:18:27;;;;;;;7.97;7.18;;;;;;;28.56;42.79;99424.84;5032982;28;20036;-41
2022/07/25 04:20:52;;;;;;;9.75;8.75;;;;;;;28.77;42.93;99422.13;5032085;28;20076;-42
2022/07/25 04:23:18;;;;;;;8.38;6.80;;;;;;;28.88;41.59;99428.03;5047027;28;20612;-43
2022/07/25 04:25:43;;;;;;;8.32;7.47;;;;;;;29.37;40.78;99431.81;5051218;28;20201;-42
2022/07/25 04:28:09;;;;;;;8.23;7.40;;;;;;;29.28;41.34;99433.06;5050423;28;20025;-43
2022/07/25 04:30:34;;;;;;;13.55;9.13;;;;;;;29.13;41.54;99429.81;5050607;28;20095;-42
2022/07/25 04:33:00;;;;;;;24.95;20.50;;;;;;;29.04;41.61;99429.84;5050435;28;20108;-43
2022/07/25 04:35:25;;;;;;;8.65;7.10;;;;;;;28.90;42.06;99425.75;5050704;28;20032;-43
2022/07/25 04:37:50;;;;;;;8.18;7.13;;;;;;;29.35;41.16;99434.09;5050700;28;20024;-43
2022/07/25 04:40:16;;;;;;;11.95;7.95;;;;;;;29.34;41.42;99435.25;5050438;28;20031;-45
2022/07/25 04:42:41;;;;;;;11.95;8.50;;;;;;;28.99;41.99;99432.75;5050548;28;20420;-45
2022/07/25 04:45:07;;;;;;;9.27;8.20;;;;;;;28.78;42.11;99430.03;5050692;28;20032;-42
2022/07/25 04:47:33;;;;;;;9.70;7.03;;;;;;;28.94;42.00;99437.63;5050840;28;20090;-43
2022/07/25 04:49:58;;;;;;;26.40;21.20;;;;;;;29.18;41.59;99443.28;5049239;28;20029;-44
2022/07/25 04:52:24;;;;;;;12.00;9.00;;;;;;;29.32;41.93;99437.53;5049839;28;20488;-44
2022/07/25 04:54:49;;;;;;;9.82;7.65;;;;;;;29.53;40.98;99447.63;5051038;28;20104;-43
2022/07/25 04:57:15;;;;;;;11.18;7.55;;;;;;;29.87;40.54;99445.69;5051976;28;20025;-43
2022/07/25 04:59:40;;;;;;;8.25;7.45;;;;;;;29.27;42.14;99451.44;5051224;28;20020;-43
2022/07/25 05:02:05;;;;;;;10.55;7.47;;;;;;;29.19;42.39;99447.63;5051552;28;20037;-43
2022/07/25 05:04:31;;;;;;;8.30;7.40;;;;;;;29.46;41.88;99452.88;5041886;28;20104;-41
2022/07/25 05:06:56;;;;;;;9.18;7.65;;;;;;;29.58;41.57;99450.97;5031570;28;20037;-42
2022/07/25 05:09:22;;;;;;;9.82;7.55;;;;;;;29.59;41.58;99447.09;5031801;28;20033;-44
2022/07/25 05:11:47;;;;;;;10.30;8.13;;;;;;;29.70;40.96;99455.72;5031353;28;20095;-42
2022/07/25 05:14:13;;;;;;;10.23;9.23;;;;;;;29.38;41.58;99447.16;5031056;28;20030;-42
2022/07/25 05:16:38;;;;;;;12.77;7.65;;;;;;;29.24;42.28;99450.19;5031456;28;20544;-44
2022/07/25 05:19:04;;;;;;;10.18;7.40;;;;;;;29.57;41.86;99448.59;5031302;28;20043;-44
2022/07/25 05:21:29;;;;;;;9.77;7.70;;;;;;;29.78;41.43;99454.03;5031464;28;20476;-43
2022/07/25 05:23:55;;;;;;;9.68;7.40;;;;;;;29.88;40.85;99459.09;5031628;28;20030;-42
2022/07/25 05:26:20;;;;;;;10.32;7.25;;;;;;;29.84;41.67;99440.91;5031360;28;20109;-43
2022/07/25 05:28:46;;;;;;;10.32;8.13;;;;;;;29.58;41.93;99461.94;5031291;28;20021;-45
2022/07/25 05:31:11;;;;;;;8.95;7.65;;;;;;;29.62;41.98;99462.06;5031402;28;20501;-43
2022/07/25 05:33:36;;;;;;;9.98;7.70;;;;;;;29.28;42.30;99457.72;5031433;28;20055;-45
2022/07/25 05:36:03;;;;;;;8.50;7.32;;;;;;;29.78;42.03;99465.81;5030853;28;20021;-46
2022/07/25 05:38:29;;;;;;;12.95;7.68;;;;;;;30.12;40.68;99461.06;5031165;28;20029;-46
2022/07/25 05:40:54;;;;;;;14.07;8.00;;;;;;;30.32;40.71;99458.59;5031204;28;20029;-43
2022/07/25 05:43:20;;;;;;;11.02;7.45;;;;;;;30.15;41.59;99465.84;5031205;28;20378;-43
2022/07/25 05:45:48;;;;;;;9.45;8.10;;;;;;;29.77;41.75;99457.91;5030874;28;20052;-44
2022/07/25 05:48:14;;;;;;;10.70;7.95;;;;;;;29.88;42.07;99458.28;5031338;28;20083;-43
2022/07/25 05:50:40;;;;;;;11.15;7.97;;;;;;;30.18;40.93;99462.44;5031315;28;20392;-44
2022/07/25 05:53:06;;;;;;;10.75;7.53;;;;;;;30.47;40.85;99462.59;5031231;28;20112;-44
2022/07/25 05:55:31;;;;;;;14.15;8.20;;;;;;;30.70;40.39;99457.44;5030311;28;20196;-44
2022/07/25 05:57:57;;;;;;;8.80;7.90;;;;;;;30.78;39.85;99457.28;5030583;28;20075;-42
2022/07/25 06:00:23;;;;;;;9.00;7.80;;;;;;;30.45;41.00;99454.69;5030897;28;20017;-47
2022/07/25 06:02:48;;;;;;;10.57;7.80;;;;;;;30.24;40.75;99441.06;5030968;28;20041;-43
2022/07/25 06:05:14;;;;;;;10.07;7.88;;;;;;;30.55;40.69;99453.44;5046291;28;20028;-42
2022/07/25 06:07:40;;;;;;;8.40;7.50;;;;;;;30.66;40.04;99460.06;5050539;28;20047;-42
2022/07/25 06:10:05;;;;;;;8.50;7.70;;;;;;;30.65;40.48;99450.22;5049838;28;20124;-42
2022/07/25 06:12:32;;;;;;;14.52;7.78;;;;;;;31.27;39.41;99456.38;5050727;28;20052;-42
2022/07/25 06:14:58;;;;;;;13.18;7.68;;;;;;;30.99;39.94;99457.16;5050222;28;20076;-43
2022/07/25 06:17:23;;;;;;;9.10;7.43;;;;;;;31.25;39.97;99464.19;5050364;28;20473;-43
2022/07/25 06:19:49;;;;;;;8.18;7.40;;;;;;;31.27;39.73;99448.16;5050088;28;20558;-46
2022/07/25 06:22:14;;;;;;;15.90;8.13;;;;;;;31.59;39.80;99450.19;5050558;28;20025;-42
2022/07/25 06:24:40;;;;;;;9.02;7.03;;;;;;;31.92;38.28;99455.41;5050519;28;20029;-44
2022/07/25 06:27:06;;;;;;;9.52;7.47;;;;;;;32.09;38.02;99449.56;5050393;28;20487;-43
2022/07/25 06:29:31;;;;;;;10.50;7.85;;;;;;;32.20;37.69;99457.31;5050120;28;20420;-43
2022/07/25 06:31:57;;;;;;;9.65;7.55;;;;;;;31.92;38.31;99456.19;5050663;28;20475;-42
2022/07/25 06:34:22;;;;;;;10.63;7.88;;;;;;;32.02;38.48;99460.38;5050358;28;20051;-42
2022/07/25 06:36:48;;;;;;;8.38;7.40;;;;;;;31.96;38.31;99451.56;5049993;28;20025;-43
2022/07/25 06:39:13;;;;;;;10.23;7.20;;;;;;;32.48;37.47;99451.66;5049755;28;20017;-44
2022/07/25 06:41:39;;;;;;;9.95;7.18;;;;;;;32.16;38.57;99446.22;5050362;28;20025;-46
2022/07/25 06:44:04;;;;;;;12.75;7.75;;;;;;;31.63;38.90;99454.66;5049977;28;20496;-43
2022/07/25 06:46:31;;;;;;;11.73;7.50;;;;;;;31.51;38.92;99440.94;5048576;28;20036;-43
2022/07/25 06:48:58;;;;;;;10.20;7.10;;;;;;;32.12;38.12;99446.13;5049651;28;20044;-42
2022/07/25 06:51:24;;;;;;;7.90;7.20;;;;;;;32.69;37.35;99448.63;5049537;28;20028;-45
2022/07/25 06:53:49;;;;;;;9.05;7.53;;;;;;;33.09;36.11;99442.81;5049588;28;20037;-44
2022/07/25 06:56:15;;;;;;;11.73;7.40;;;;;;;33.82;34.91;99447.78;5049681;28;20454;-42
2022/07/25 06:58:40;;;;;;;8.43;7.40;;;;;;;33.55;35.69;99450.44;5049455;28;20077;-46
2022/07/25 07:01:06;;;;;;;8.15;7.43;;;;;;;33.68;35.71;99440.03;5049849;28;20021;-45
2022/07/25 07:03:36;;;;;;;9.98;7.43;;;;;;;33.81;34.92;99441.44;5049639;28;20041;-43
2022/07/25 07:06:03;;;;;;;11.27;7.30;;;;;;;34.11;34.66;99449.06;5049525;28;20139;-44
2022/07/25 07:08:29;;;;;;;9.70;7.30;;;;;;;34.07;34.75;99439.91;5049533;28;20032;-43
2022/07/25 07:10:54;;;;;;;9.77;7.07;;;;;;;33.47;34.94;99445.91;5049200;28;20276;-43
2022/07/25 07:13:22;;;;;;;7.57;6.80;;;;;;;33.44;35.24;99436.44;5048506;28;20449;-44
2022/07/25 07:15:49;;;;;;;8.90;7.27;;;;;;;33.68;34.42;99448.31;5049094;28;20024;-45
2022/07/25 07:18:18;;;;;;;11.75;7.00;;;;;;;33.65;35.14;99441.56;5044768;28;20473;-44
2022/07/25 07:20:44;;;;;;;8.55;7.63;;;;;;;34.05;34.36;99445.81;5029718;28;20087;-44
2022/07/25 07:23:10;;;;;;;9.68;6.75;;;;;;;33.79;34.74;99441.03;5033592;28;20059;-44
2022/07/25 07:25:35;;;;;;;8.95;6.97;;;;;;;33.93;33.87;99439.66;5033763;28;20026;-42
2022/07/25 07:28:01;;;;;;;8.82;7.40;;;;;;;33.72;33.93;99440.91;5033806;28;20068;-43
2022/07/25 07:30:27;;;;;;;8.15;6.85;;;;;;;33.89;33.77;99440.44;5033682;28;20420;-43
2022/07/25 07:32:52;;;;;;;10.60;6.93;;;;;;;33.92;34.19;99438.09;5033076;28;20017;-45
2022/07/25 07:35:18;;;;;;;14.70;7.20;;;;;;;34.67;32.78;99436.53;5033480;28;20029;-44
2022/07/25 07:37:45;;;;;;;10.52;7.15;;;;;;;34.93;32.41;99432.16;5033598;28;20060;-44
2022/07/25 07:40:13;;;;;;;8.63;7.10;;;;;;;35.24;31.77;99442.84;5032957;28;20094;-43
2022/07/25 07:42:45;;;;;;;9.15;7.30;;;;;;;35.19;32.02;99434.88;5032922;28;20040;-43
2022/07/25 07:45:22;;;;;;;8.57;7.00;;;;;;;35.05;32.19;99432.72;5033472;28;20512;-42
2022/07/25 07:47:50;;;;;;;10.68;6.53;;;;;;;34.68;32.25;99437.34;5033529;28;20476;-45
2022/07/25 07:50:18;;;;;;;8.10;7.25;;;;;;;34.37;32.68;99433.72;5033205;28;20056;-45
2022/07/25 07:52:44;;;;;;;7.88;6.53;;;;;;;34.13;33.58;99438.44;5031969;28;20082;-46
2022/07/25 07:57:55;;;;;;;11.20;7.50;;;;;;;34.94;32.30;99431.78;5033746;28;20033;-44
2022/07/25 08:00:20;;;;;;;10.80;7.25;;;;;;;35.11;31.57;99430.41;5033376;28;20401;-44
2022/07/25 08:02:48;;;;;;;10.43;6.47;;;;;;;35.31;31.03;99436.56;5033344;28;20476;-46
2022/07/25 08:05:43;;;;;;;9.32;6.80;;;;;;;35.32;30.98;99438.19;5048105;28;20528;-45
2022/07/25 08:08:11;;;;;;;9.57;6.50;;;;;;;36.01;30.12;99443.22;5051471;28;20032;-47
2022/07/25 08:10:39;;;;;;;7.30;6.60;;;;;;;36.55;28.94;99443.63;5053010;28;20168;-42
2022/07/25 08:13:16;;;;;;;7.22;6.53;;;;;;;36.85;28.25;99434.31;5051612;28;20055;-44
2022/07/25 08:15:44;;;;;;;6.95;6.25;;;;;;;36.79;28.25;99433.88;5052383;28;20029;-44
2022/07/25 08:18:09;;;;;;;7.15;6.40;;;;;;;36.95;28.05;99436.34;5052686;28;20028;-47
2022/07/25 08:20:35;;;;;;;8.60;6.07;;;;;;;36.77;28.29;99432.69;5051633;28;20337;-45
2022/07/25 08:23:01;;;;;;;8.07;6.32;;;;;;;37.43;27.97;99440.09;5052945;28;20044;-45
2022/07/25 08:25:26;;;;;;;10.13;6.63;;;;;;;38.21;26.63;99431.06;5052603;28;20089;-45
2022/07/25 08:27:52;;;;;;;7.50;6.60;;;;;;;37.97;26.40;99435.44;5052756;28;20094;-42
2022/07/25 08:30:18;;;;;;;10.25;6.78;;;;;;;37.87;26.60;99431.47;5052433;28;20021;-43
2022/07/25 08:32:50;;;;;;;8.60;6.38;;;;;;;38.12;26.69;99427.91;5052208;28;20016;-44
2022/07/25 08:35:17;;;;;;;10.13;6.40;;;;;;;38.25;25.84;99426.31;5052547;28;20570;-46
2022/07/25 08:37:43;;;;;;;6.70;5.90;;;;;;;38.43;26.00;99431.84;5052566;28;20063;-46
2022/07/25 08:40:10;;;;;;;10.00;5.72;;;;;;;38.55;25.67;99435.41;5052561;28;20045;-47
2022/07/25 08:42:36;;;;;;;7.25;6.50;;;;;;;38.70;25.02;99431.41;5052557;28;20025;-46
2022/07/25 08:45:04;;;;;;;7.10;5.95;;;;;;;38.67;25.67;99433.00;5052206;28;20021;-44
2022/07/25 08:47:30;;;;;;;6.82;6.10;;;;;;;38.62;26.31;99433.41;5052192;28;20024;-46
2022/07/25 08:49:56;;;;;;;10.27;6.40;;;;;;;39.07;25.67;99427.28;5052618;28;20119;-44
2022/07/25 08:52:22;;;;;;;7.00;6.30;;;;;;;38.99;25.31;99431.28;5052441;28;20441;-47
2022/07/25 08:54:49;;;;;;;7.80;5.97;;;;;;;39.23;24.73;99424.06;5052174;28;20404;-44
2022/07/25 08:57:14;;;;;;;7.72;6.07;;;;;;;39.40;25.47;99441.84;5051882;28;20024;-43
2022/07/25 08:59:41;;;;;;;8.10;6.32;;;;;;;39.96;24.63;99434.31;5052009;28;20050;-46
2022/07/25 09:02:09;;;;;;;6.40;5.80;;;;;;;39.69;24.31;99434.91;5052181;28;20067;-43
2022/07/25 09:04:35;;;;;;;7.38;5.90;;;;;;;39.69;23.82;99428.53;5051533;28;20123;-44
2022/07/25 09:07:03;;;;;;;9.88;6.10;;;;;;;38.85;25.22;99421.03;5051647;28;20024;-42
2022/07/25 09:09:33;;;;;;;6.40;5.38;;;;;;;39.24;24.51;99423.66;5051642;28;20116;-44
2022/07/25 09:11:58;;;;;;;8.90;5.53;;;;;;;39.75;23.33;99414.97;5051570;28;20079;-43
2022/07/25 09:14:24;;;;;;;6.43;5.82;;;;;;;39.81;23.07;99416.94;5051791;28;20052;-44
2022/07/25 09:16:50;;;;;;;8.68;5.50;;;;;;;39.55;22.76;99418.31;5051865;28;20060;-44
2022/07/25 09:19:21;;;;;;;6.30;5.63;;;;;;;39.28;22.71;99410.50;5038224;28;20481;-44
2022/07/25 09:22:05;;;;;;;6.63;5.45;;;;;;;39.30;24.11;99415.66;5031347;28;20020;-46
2022/07/25 09:24:31;;;;;;;6.22;5.55;;;;;;;39.67;22.74;99414.25;5031506;28;20506;-44
2022/07/25 09:26:59;;;;;;;5.57;4.97;;;;;;;39.71;22.19;99405.88;5031716;28;20021;-47
2022/07/25 09:29:31;;;;;;;8.50;5.35;;;;;;;39.70;22.85;99407.88;5031377;28;20026;-47
2022/07/25 09:31:58;;;;;;;8.32;5.57;;;;;;;39.77;22.89;99407.00;5031789;28;20021;-47
2022/07/25 09:34:39;;;;;;;7.50;5.72;;;;;;;40.06;22.87;99407.56;5031293;28;20108;-47
2022/07/25 09:37:13;;;;;;;7.07;5.38;;;;;;;39.99;23.20;99404.88;5031011;28;20025;-44
2022/07/25 09:39:45;;;;;;;6.30;5.70;;;;;;;39.36;22.05;99413.25;5031088;28;20406;-44
2022/07/25 09:42:19;;;;;;;8.20;5.65;;;;;;;39.07;22.94;99407.81;5031800;28;20060;-45
2022/07/25 09:45:00;;;;;;;7.38;5.60;;;;;;;39.27;23.15;99411.69;5030165;28;20095;-45
2022/07/25 09:47:26;;;;;;;6.68;5.70;;;;;;;39.08;22.64;99401.06;5029807;28;20068;-44
2022/07/25 09:49:51;;;;;;;7.43;5.60;;;;;;;39.74;22.21;99402.25;5030104;28;20057;-43
2022/07/25 09:52:17;;;;;;;7.43;5.70;;;;;;;39.24;23.49;99404.19;5030491;28;20055;-43
2022/07/25 09:54:43;;;;;;;7.47;5.50;;;;;;;39.26;23.64;99401.78;5031332;28;20021;-44
2022/07/25 09:57:08;;;;;;;6.10;5.50;;;;;;;39.24;23.21;99404.19;5030828;28;20449;-44
2022/07/25 09:59:35;;;;;;;8.20;5.80;;;;;;;39.24;22.21;99395.03;5030786;28;20060;-44
2022/07/25 10:02:30;;;;;;;6.22;5.63;;;;;;;39.81;22.35;99391.88;5030765;28;20033;-44
2022/07/25 10:05:03;;;;;;;6.00;5.43;;;;;;;39.39;22.54;99392.94;5043861;28;20075;-45
2022/07/25 10:07:29;;;;;;;8.02;6.13;;;;;;;39.34;23.52;99388.63;5051125;28;20021;-43
2022/07/25 10:09:55;;;;;;;6.40;5.80;;;;;;;39.32;23.09;99390.19;5050653;28;20106;-46
2022/07/25 10:12:22;;;;;;;6.72;5.70;;;;;;;39.34;22.69;99391.41;5050177;28;20036;-44
2022/07/25 10:15:14;;;;;;;8.18;5.80;;;;;;;39.97;23.08;99382.22;5050747;28;20480;-48
2022/07/25 10:17:40;;;;;;;6.75;5.93;;;;;;;39.87;21.55;99376.28;5050957;28;20023;-45
2022/07/25 10:20:09;;;;;;;6.47;5.70;;;;;;;39.42;22.32;99379.00;5050702;28;20013;-42
2022/07/25 10:22:39;;;;;;;7.88;5.85;;;;;;;38.80;23.20;99366.63;5050527;28;20025;-42
2022/07/25 10:25:16;;;;;;;6.70;6.07;;;;;;;38.85;23.73;99366.19;5050379;28;20116;-46
2022/07/25 10:27:51;;;;;;;6.85;5.93;;;;;;;38.00;23.67;99359.66;5051032;28;20025;-44
2022/07/25 10:30:25;;;;;;;7.20;6.50;;;;;;;37.74;24.27;99355.31;5050508;28;20025;-43
2022/07/25 10:33:03;;;;;;;7.75;6.40;;;;;;;37.44;24.95;99350.13;5050446;28;20464;-43
2022/07/25 10:35:29;;;;;;;9.38;6.53;;;;;;;37.42;25.64;99361.63;5050297;28;20036;-44
2022/07/25 10:37:57;;;;;;;12.77;6.07;;;;;;;38.02;24.62;99351.72;5050722;28;20091;-46
2022/07/25 10:40:31;;;;;;;8.30;6.65;;;;;;;38.60;23.67;99352.41;5050260;28;20121;-42
2022/07/25 10:43:02;;;;;;;6.82;6.00;;;;;;;39.61;22.48;99349.88;5050338;28;20044;-45
2022/07/25 10:45:37;;;;;;;7.32;6.35;;;;;;;38.99;23.91;99336.72;5049964;28;20028;-43
2022/07/25 10:48:08;;;;;;;8.02;5.93;;;;;;;38.80;24.03;99343.59;5050056;28;20032;-43
2022/07/25 10:50:33;;;;;;;8.18;5.72;;;;;;;38.64;24.59;99335.72;5050274;28;20025;-44
2022/07/25 10:53:00;;;;;;;7.28;5.80;;;;;;;38.88;23.70;99336.78;5050173;28;20553;-45
2022/07/25 10:55:27;;;;;;;6.70;6.10;;;;;;;38.97;23.39;99331.56;5049372;28;20130;-44
2022/07/25 10:58:05;;;;;;;7.97;5.85;;;;;;;38.68;23.92;99336.50;5050339;28;20107;-43
2022/07/25 11:00:32;;;;;;;6.45;5.85;;;;;;;37.98;24.75;99328.72;5050120;28;20061;-45
2022/07/25 11:02:58;;;;;;;9.93;6.23;;;;;;;38.20;24.80;99340.59;5050434;28;20033;-46
2022/07/25 11:05:24;;;;;;;7.00;6.30;;;;;;;38.00;24.20;99336.66;5049522;28;20036;-44
2022/07/25 11:07:51;;;;;;;8.55;5.90;;;;;;;37.72;24.71;99327.19;5050073;28;20028;-43
2022/07/25 11:10:24;;;;;;;8.55;6.38;;;;;;;37.52;25.12;99326.75;5050067;28;20177;-44
2022/07/25 11:12:50;;;;;;;9.05;6.40;;;;;;;37.12;25.31;99320.34;5050298;28;20480;-47
2022/07/25 11:15:22;;;;;;;10.27;6.10;;;;;;;37.39;25.20;99312.47;5049689;28;20025;-41
2022/07/25 11:17:52;;;;;;;6.70;6.00;;;;;;;37.61;25.18;99315.28;5048992;28;20031;-43
2022/07/25 11:20:20;;;;;;;6.53;5.88;;;;;;;37.74;25.42;99317.25;5029854;28;20029;-44
2022/07/25 11:22:55;;;;;;;10.38;6.30;;;;;;;36.99;25.91;99306.03;5029956;28;20112;-43
2022/07/25 11:25:22;;;;;;;9.00;6.40;;;;;;;36.64;27.15;99301.19;5029709;28;20381;-43
2022/07/25 11:27:58;;;;;;;7.05;6.10;;;;;;;37.04;26.21;99296.56;5029765;28;20025;-44
2022/07/25 11:30:26;;;;;;;8.93;6.00;;;;;;;37.36;25.64;99291.88;5030269;28;20026;-44
2022/07/25 11:32:54;;;;;;;9.15;6.20;;;;;;;37.37;25.95;99293.44;5030261;28;20457;-44